KDAY/DAY METAR and TAF weather

Enter ICAO airport designator
Station Type Date Time Source
KDAY METAR 2022/11/27 08:25 UTC NOAA

KDAY 270825Z 13009KT 4SM -RA BR BKN016 BKN060 OVC090 08/06 A2967 RMK AO2 VIS 2 1/2 RWY 6L P0003 T00780061


Station Type Date Time Source
KDAY Decoded METAR 2022/11/27 08:25 UTC NOAA

COX DAYTON INTERNATIONAL, OH, United States (KDAY) 39-54N 084-13W 305M
Nov 27, 2022 - 03:25 AM EST / 2022.11.27 0825 UTC
Wind: from the SE (130 degrees) at 10 MPH (9 KT):0
Visibility: 4 mile(s):0
Sky conditions: overcast
Weather: light rain; mist
Precipitation last hour: 0.03 inches
Temperature: 46.0 F (7.8 C)
Dew Point: 43.0 F (6.1 C)
Relative Humidity: 88%
Pressure (altimeter): 29.67 in. Hg (1004 hPa)
ob: KDAY 270825Z 13009KT 4SM -RA BR BKN016 BKN060 OVC090 08/06 A2967 RMK AO2 VIS 2 1/2 RWY 6L P0003 T00780061
cycle: 8

Station Type Date Time Source
KDAY TAF 2022/11/27 06:46 UTC NOAA

TAF KDAY 270543Z 2706/2806 17010KT P6SM -SHRA OVC050
FM270800 14012KT 5SM -SHRA BR OVC015
FM271000 14012G20KT P6SM -SHRA OVC008 WS020/19040KT
FM271500 20016G28KT P6SM VCSH OVC012
FM272100 23016G23KT 5SM BR VCSH OVC006
FM280100 29012KT P6SM OVC012

Example: see airport list